createdAt,value
2017-11-04T00:00:16.703Z,0
2017-11-04T00:01:25.583Z,0
2017-11-04T00:02:34.461Z,0
2017-11-04T00:03:43.341Z,0
2017-11-04T00:04:52.219Z,0
2017-11-04T00:06:00.767Z,0
2017-11-04T00:07:09.985Z,0
2017-11-04T00:08:18.856Z,0
2017-11-04T00:09:27.728Z,0
2017-11-04T00:10:36.264Z,0
2017-11-04T00:11:45.187Z,0
2017-11-04T00:12:53.729Z,0
2017-11-04T00:14:02.638Z,0
2017-11-04T00:15:11.175Z,0
2017-11-04T00:16:19.715Z,0
2017-11-04T00:17:28.252Z,0
2017-11-04T00:18:37.138Z,0
2017-11-04T00:19:46.491Z,0
2017-11-04T00:20:55.361Z,0
2017-11-04T00:22:04.236Z,0
2017-11-04T00:23:12.775Z,0
2017-11-04T00:24:21.313Z,0
2017-11-04T00:25:30.529Z,0
2017-11-04T00:26:39.403Z,0
2017-11-04T00:27:48.271Z,0
2017-11-04T00:28:57.818Z,0
2017-11-04T00:30:07.033Z,0
2017-11-04T00:31:16.242Z,0
2017-11-04T00:32:25.115Z,0
2017-11-04T00:33:34.327Z,0
2017-11-04T00:34:43.202Z,0
2017-11-04T00:35:51.740Z,0
2017-11-04T00:37:00.666Z,0
2017-11-04T00:38:09.886Z,0
2017-11-04T00:39:18.763Z,0
2017-11-04T00:40:27.975Z,0
2017-11-04T00:41:36.514Z,0
2017-11-04T00:42:45.725Z,0
2017-11-04T00:43:54.270Z,0
2017-11-04T00:45:03.140Z,0
2017-11-04T00:46:12.018Z,0
2017-11-04T00:47:20.560Z,0
2017-11-04T00:48:29.450Z,0
2017-11-04T00:49:37.989Z,0
2017-11-04T00:50:47.207Z,0
2017-11-04T00:51:56.756Z,0
2017-11-04T00:53:35.045Z,0
2017-11-04T00:54:43.584Z,0
2017-11-04T00:55:52.793Z,0
2017-11-04T00:57:01.696Z,0
2017-11-04T00:58:10.920Z,0
2017-11-04T00:59:19.792Z,0
2017-11-04T01:00:28.666Z,0
2017-11-04T01:01:37.210Z,0
2017-11-04T01:02:46.086Z,0
2017-11-04T01:03:55.309Z,0
2017-11-04T01:05:04.520Z,0
2017-11-04T01:06:13.394Z,0
2017-11-04T01:07:21.929Z,0
2017-11-04T01:08:30.469Z,0
2017-11-04T01:09:39.341Z,0
2017-11-04T01:10:48.551Z,0
2017-11-04T01:11:57.091Z,0
2017-11-04T01:13:05.973Z,0
2017-11-04T01:14:15.196Z,0
2017-11-04T01:15:23.734Z,0
2017-11-04T01:16:32.276Z,0
2017-11-04T01:17:41.150Z,0
2017-11-04T01:18:49.738Z,0
2017-11-04T01:19:58.609Z,0
2017-11-04T01:21:07.151Z,0
2017-11-04T01:22:15.695Z,0
2017-11-04T01:23:24.232Z,0
2017-11-04T01:24:33.443Z,0
2017-11-04T01:25:41.984Z,0
2017-11-04T01:26:50.857Z,0
2017-11-04T01:27:59.395Z,0
2017-11-04T01:29:08.279Z,0
2017-11-04T01:30:17.492Z,0
2017-11-04T01:31:26.723Z,0
2017-11-04T01:32:35.596Z,0
2017-11-04T01:33:44.811Z,0
2017-11-04T01:34:53.694Z,0
2017-11-04T01:36:02.910Z,0
2017-11-04T01:37:12.118Z,0
2017-11-04T01:38:20.994Z,0
2017-11-04T01:39:29.532Z,0
2017-11-04T01:40:38.737Z,0
2017-11-04T01:41:47.277Z,0
2017-11-04T01:42:56.153Z,0
2017-11-04T01:44:05.027Z,0
2017-11-04T01:45:14.240Z,0
2017-11-04T01:46:23.450Z,0
2017-11-04T01:47:32.327Z,0
2017-11-04T01:48:41.540Z,0
2017-11-04T01:49:50.749Z,0
2017-11-04T01:50:59.627Z,0
2017-11-04T01:52:08.160Z,0
2017-11-04T01:53:17.369Z,0
2017-11-04T01:54:26.253Z,0
2017-11-04T01:55:34.835Z,0
2017-11-04T01:56:43.710Z,0
2017-11-04T01:57:52.734Z,0
2017-11-04T01:59:01.609Z,0
2017-11-04T02:00:12.021Z,0
2017-11-04T02:01:20.899Z,0
2017-11-04T02:02:29.775Z,0
2017-11-04T02:03:38.650Z,0
2017-11-04T02:04:47.522Z,0
2017-11-04T02:05:56.061Z,0
2017-11-04T02:07:05.267Z,0
2017-11-04T02:08:14.146Z,0
2017-11-04T02:09:22.682Z,0
2017-11-04T02:10:31.556Z,0
2017-11-04T02:11:40.774Z,0
2017-11-04T02:12:49.984Z,0
2017-11-04T02:13:59.529Z,0
2017-11-04T02:15:08.404Z,0
2017-11-04T02:16:17.280Z,0
2017-11-04T02:17:26.160Z,0
2017-11-04T02:18:34.692Z,0
2017-11-04T02:19:43.249Z,0
2017-11-04T02:20:52.791Z,0
2017-11-04T02:22:01.678Z,0
2017-11-04T02:23:10.556Z,0
2017-11-04T02:24:20.109Z,0
2017-11-04T02:25:28.984Z,0
2017-11-04T02:26:37.862Z,0
2017-11-04T02:27:46.399Z,0
2017-11-04T02:28:55.273Z,0
2017-11-04T02:30:04.830Z,0
2017-11-04T02:31:14.045Z,0
2017-11-04T02:32:22.584Z,0
2017-11-04T02:33:31.794Z,0
2017-11-04T02:34:40.332Z,0
2017-11-04T02:35:49.217Z,0
2017-11-04T02:36:57.758Z,0
2017-11-04T02:38:06.296Z,0
2017-11-04T02:39:14.835Z,0
2017-11-04T02:40:23.707Z,0
2017-11-04T02:41:32.584Z,0
2017-11-04T02:42:41.798Z,0
2017-11-04T02:43:50.675Z,0
2017-11-04T02:44:59.209Z,0
2017-11-04T02:46:08.421Z,0
2017-11-04T02:47:17.638Z,0
2017-11-04T02:48:26.852Z,0
2017-11-04T02:49:35.731Z,0
2017-11-04T02:50:44.273Z,0
2017-11-04T02:51:53.145Z,0
2017-11-04T02:53:02.699Z,0
2017-11-04T02:54:11.905Z,0
2017-11-04T02:55:20.452Z,0
2017-11-04T02:56:29.323Z,0
2017-11-04T02:57:38.201Z,0
2017-11-04T02:58:46.730Z,0
2017-11-04T02:59:55.947Z,0
2017-11-04T03:01:05.150Z,0
2017-11-04T03:02:14.022Z,0
2017-11-04T03:03:22.897Z,0
2017-11-04T03:04:31.436Z,0
2017-11-04T03:05:40.308Z,0
2017-11-04T03:06:48.844Z,0
2017-11-04T03:07:57.385Z,0
2017-11-04T03:09:06.261Z,0
2017-11-04T03:10:14.802Z,0
2017-11-04T03:11:23.343Z,0
2017-11-04T03:12:32.219Z,0
2017-11-04T03:13:41.092Z,0
2017-11-04T03:14:49.632Z,0
2017-11-04T03:15:58.509Z,0
2017-11-04T03:17:07.388Z,0
2017-11-04T03:18:16.259Z,0
2017-11-04T03:19:25.473Z,0
2017-11-04T03:20:34.346Z,0
2017-11-04T03:21:42.884Z,0
2017-11-04T03:22:51.755Z,0
2017-11-04T03:24:00.295Z,0
2017-11-04T03:25:09.176Z,0
2017-11-04T03:26:18.047Z,0
2017-11-04T03:27:26.921Z,0
2017-11-04T03:28:35.486Z,0
2017-11-04T03:29:44.675Z,0
2017-11-04T03:30:53.560Z,0
2017-11-04T03:32:02.435Z,0
2017-11-04T03:33:11.643Z,0
2017-11-04T03:34:20.518Z,0
2017-11-04T03:35:29.060Z,0
2017-11-04T03:36:37.962Z,0
2017-11-04T03:37:47.178Z,0
2017-11-04T03:38:55.716Z,0
2017-11-04T03:40:04.256Z,0
2017-11-04T03:41:12.794Z,0
2017-11-04T03:42:21.329Z,0
2017-11-04T03:43:29.871Z,0
2017-11-04T03:44:39.084Z,0
2017-11-04T03:45:48.293Z,0
2017-11-04T03:46:57.165Z,0
2017-11-04T03:48:06.373Z,0
2017-11-04T03:49:15.249Z,0
2017-11-04T03:50:23.789Z,0
2017-11-04T03:51:32.329Z,0
2017-11-04T03:52:41.201Z,0
2017-11-04T03:53:50.076Z,0
2017-11-04T03:54:58.615Z,0
2017-11-04T03:56:07.503Z,0
2017-11-04T03:57:16.714Z,0
2017-11-04T03:58:25.590Z,0
2017-11-04T03:59:34.465Z,0
2017-11-04T04:00:43.682Z,0
2017-11-04T04:01:52.220Z,0
2017-11-04T04:03:00.762Z,0
2017-11-04T04:04:09.633Z,0
2017-11-04T04:05:18.508Z,0
2017-11-04T04:06:27.722Z,0
2017-11-04T04:07:36.934Z,0
2017-11-04T04:08:45.804Z,0
2017-11-04T04:09:54.683Z,0
2017-11-04T04:11:03.555Z,0
2017-11-04T04:12:12.432Z,0
2017-11-04T04:13:20.970Z,0
2017-11-04T04:14:29.845Z,0
2017-11-04T04:15:39.099Z,0
2017-11-04T04:16:47.974Z,0
2017-11-04T04:17:56.562Z,0
2017-11-04T04:19:05.101Z,0
2017-11-04T04:20:13.977Z,0
2017-11-04T04:21:22.515Z,0
2017-11-04T04:22:31.388Z,0
2017-11-04T04:23:39.925Z,0
2017-11-04T04:24:48.802Z,0
2017-11-04T04:25:57.676Z,0
2017-11-04T04:27:06.887Z,0
2017-11-04T04:28:15.765Z,0
2017-11-04T04:29:24.643Z,0
2017-11-04T04:30:33.853Z,0
2017-11-04T04:31:42.733Z,0
2017-11-04T04:32:51.618Z,0
2017-11-04T04:34:00.484Z,0
2017-11-04T04:35:09.363Z,0
2017-11-04T04:36:18.245Z,0
2017-11-04T04:37:27.125Z,0
2017-11-04T04:38:36.000Z,0
2017-11-04T04:39:44.876Z,0
2017-11-04T04:40:53.464Z,0
2017-11-04T04:42:02.679Z,0
2017-11-04T04:43:11.219Z,0
2017-11-04T04:44:20.093Z,0
2017-11-04T04:45:28.974Z,0
2017-11-04T04:46:37.851Z,0
2017-11-04T04:47:46.732Z,0
2017-11-04T04:48:55.600Z,0
2017-11-04T04:50:04.486Z,0
2017-11-04T04:51:14.037Z,0
2017-11-04T04:52:23.249Z,0
2017-11-04T04:53:32.468Z,0
2017-11-04T04:54:41.004Z,0
2017-11-04T04:55:49.877Z,0
2017-11-04T04:56:58.414Z,0
2017-11-04T04:58:06.954Z,0
2017-11-04T04:59:16.165Z,0
2017-11-04T05:00:25.039Z,0
2017-11-04T05:01:33.575Z,0
2017-11-04T05:02:42.113Z,0
2017-11-04T05:03:51.667Z,0
2017-11-04T05:05:00.541Z,0
2017-11-04T05:06:09.084Z,0
2017-11-04T05:07:17.955Z,0
2017-11-04T05:08:27.172Z,0
2017-11-04T05:09:36.045Z,0
2017-11-04T05:10:44.584Z,0
2017-11-04T05:11:53.460Z,0
2017-11-04T05:13:01.992Z,0
2017-11-04T05:14:10.532Z,0
2017-11-04T05:15:19.408Z,0
2017-11-04T05:16:28.622Z,0
2017-11-04T05:17:37.161Z,0
2017-11-04T05:18:45.704Z,0
2017-11-04T05:19:54.913Z,0
2017-11-04T05:21:03.450Z,0
2017-11-04T05:22:12.997Z,0
2017-11-04T05:23:22.556Z,0
2017-11-04T05:24:31.595Z,0
2017-11-04T05:25:40.277Z,0
2017-11-04T05:26:49.184Z,0
2017-11-04T05:27:57.757Z,0
2017-11-04T05:29:06.293Z,0
2017-11-04T05:30:15.171Z,0
2017-11-04T05:31:23.733Z,0
2017-11-04T05:32:32.704Z,0
2017-11-04T05:33:41.729Z,0
2017-11-04T05:34:51.085Z,0
2017-11-04T05:36:00.055Z,0
2017-11-04T05:37:08.635Z,0
2017-11-04T05:38:17.210Z,0
2017-11-04T05:39:26.482Z,0
2017-11-04T05:40:35.363Z,0
2017-11-04T05:41:44.237Z,0
2017-11-04T05:42:53.451Z,0
2017-11-04T05:44:02.331Z,0
2017-11-04T05:45:11.206Z,0
2017-11-04T05:46:20.079Z,0
2017-11-04T05:47:28.617Z,0
2017-11-04T05:48:37.155Z,0
2017-11-04T05:49:45.693Z,0
2017-11-04T05:50:54.902Z,0
2017-11-04T05:52:03.447Z,0
2017-11-04T05:53:12.315Z,0
2017-11-04T05:54:20.866Z,0
2017-11-04T05:55:29.749Z,0
2017-11-04T05:56:39.046Z,0
2017-11-04T05:57:48.606Z,0
2017-11-04T05:58:57.478Z,0
2017-11-04T06:00:06.695Z,0
2017-11-04T06:01:15.910Z,0
2017-11-04T06:02:24.784Z,0
2017-11-04T06:03:34.002Z,0
2017-11-04T06:04:42.875Z,0
2017-11-04T06:05:51.413Z,0
2017-11-04T06:06:59.950Z,4
2017-11-04T06:08:08.491Z,4
2017-11-04T06:09:17.029Z,0
2017-11-04T06:10:25.901Z,4
2017-11-04T06:11:34.774Z,4
2017-11-04T06:12:43.985Z,4
2017-11-04T06:13:52.528Z,8
2017-11-04T06:15:01.406Z,8
2017-11-04T06:16:10.285Z,8
2017-11-04T06:17:19.497Z,12
2017-11-04T06:18:28.040Z,16
2017-11-04T06:19:37.251Z,20
2017-11-04T06:20:46.128Z,20
2017-11-04T06:21:54.668Z,24
2017-11-04T06:23:03.548Z,28
2017-11-04T06:24:12.425Z,32
2017-11-04T06:25:21.299Z,40
2017-11-04T06:26:30.506Z,48
2017-11-04T06:27:39.045Z,52
2017-11-04T06:28:48.259Z,60
2017-11-04T06:29:56.802Z,68
2017-11-04T06:31:05.337Z,76
2017-11-04T06:32:14.236Z,84
2017-11-04T06:33:22.777Z,92
2017-11-04T06:34:31.651Z,104
2017-11-04T06:35:40.871Z,112
2017-11-04T06:36:49.751Z,120
2017-11-04T06:37:58.290Z,132
2017-11-04T06:39:07.167Z,144
2017-11-04T06:40:15.707Z,152
2017-11-04T06:41:24.968Z,164
2017-11-04T06:42:33.840Z,172
2017-11-04T06:43:42.379Z,184
2017-11-04T06:44:50.920Z,192
2017-11-04T06:45:59.791Z,204
2017-11-04T06:47:08.997Z,224
2017-11-04T06:48:17.537Z,244
2017-11-04T06:49:26.750Z,268
2017-11-04T06:50:35.630Z,292
2017-11-04T06:51:44.172Z,324
2017-11-04T06:52:53.382Z,364
2017-11-04T06:54:01.918Z,392
2017-11-04T06:55:11.133Z,420
2017-11-04T06:56:20.341Z,436
2017-11-04T06:57:28.878Z,448
2017-11-04T06:58:37.751Z,460
2017-11-04T06:59:46.961Z,472
2017-11-04T07:00:55.836Z,480
2017-11-04T07:02:05.054Z,492
2017-11-04T07:03:13.592Z,516
2017-11-04T07:04:22.133Z,540
2017-11-04T07:05:31.009Z,564
2017-11-04T07:06:40.221Z,572
2017-11-04T07:07:49.430Z,584
2017-11-04T07:08:57.972Z,612
2017-11-04T07:10:06.509Z,632
2017-11-04T07:11:15.384Z,668
2017-11-04T07:12:24.416Z,712
2017-11-04T07:13:32.957Z,752
2017-11-04T07:14:41.509Z,800
2017-11-04T07:15:50.035Z,860
2017-11-04T07:16:59.248Z,916
2017-11-04T07:18:08.124Z,968
2017-11-04T07:19:16.997Z,1004
2017-11-04T07:20:25.534Z,1036
2017-11-04T07:21:34.409Z,1056
2017-11-04T07:22:43.289Z,1052
2017-11-04T07:23:51.823Z,1064
2017-11-04T07:25:00.365Z,1112
2017-11-04T07:26:09.574Z,1168
2017-11-04T07:27:18.793Z,1188
2017-11-04T07:28:28.002Z,1196
2017-11-04T07:29:36.538Z,1180
2017-11-04T07:30:45.809Z,1204
2017-11-04T07:31:54.792Z,1268
2017-11-04T07:33:03.809Z,1376
2017-11-04T07:34:12.349Z,1484
2017-11-04T07:35:20.886Z,1596
2017-11-04T07:36:29.425Z,1688
2017-11-04T07:37:37.962Z,1748
2017-11-04T07:38:46.504Z,1844
2017-11-04T07:39:55.377Z,1952
2017-11-04T07:41:03.914Z,2084
2017-11-04T07:42:12.793Z,2140
2017-11-04T07:43:21.334Z,2172
2017-11-04T07:44:30.208Z,2220
2017-11-04T07:45:39.087Z,2248
2017-11-04T07:46:47.955Z,2244
2017-11-04T07:47:56.832Z,2224
2017-11-04T07:49:05.707Z,2272
2017-11-04T07:50:14.246Z,2276
2017-11-04T07:51:22.788Z,2296
2017-11-04T07:52:31.327Z,2180
2017-11-04T07:53:39.865Z,2064
2017-11-04T07:54:48.737Z,1972
2017-11-04T07:55:57.613Z,1900
2017-11-04T07:57:06.824Z,1844
2017-11-04T07:58:15.365Z,1792
2017-11-04T07:59:24.588Z,1852
2017-11-04T08:00:33.129Z,1900
2017-11-04T08:01:41.671Z,1944
2017-11-04T08:02:50.211Z,1964
2017-11-04T08:03:59.091Z,1968
2017-11-04T08:05:07.680Z,2008
2017-11-04T08:06:16.556Z,2188
2017-11-04T08:07:25.429Z,2268
2017-11-04T08:08:33.970Z,2404
2017-11-04T08:09:42.854Z,2424
2017-11-04T08:10:51.780Z,2332
2017-11-04T08:12:00.653Z,2144
2017-11-04T08:13:09.534Z,2092
2017-11-04T08:14:18.076Z,2180
2017-11-04T08:15:26.616Z,2276
2017-11-04T08:16:35.494Z,2332
2017-11-04T08:17:44.053Z,2412
2017-11-04T08:18:52.933Z,2512
2017-11-04T08:20:01.810Z,2792
2017-11-04T08:21:10.688Z,2860
2017-11-04T08:22:19.560Z,2916
2017-11-04T08:23:28.434Z,2848
2017-11-04T08:24:36.970Z,2956
2017-11-04T08:25:46.187Z,3128
2017-11-04T08:26:55.057Z,3236
2017-11-04T08:28:03.981Z,3432
2017-11-04T08:29:12.523Z,3796
2017-11-04T08:30:21.738Z,3804
2017-11-04T08:31:30.613Z,3396
2017-11-04T08:32:39.152Z,3452
2017-11-04T08:33:47.690Z,3684
2017-11-04T08:34:56.226Z,3636
2017-11-04T08:36:04.764Z,3384
2017-11-04T08:37:13.308Z,3180
2017-11-04T08:38:21.844Z,3088
2017-11-04T08:39:31.053Z,3052
2017-11-04T08:40:39.929Z,3088
2017-11-04T08:41:49.147Z,3068
2017-11-04T08:42:58.695Z,3068
2017-11-04T08:44:07.570Z,3044
2017-11-04T08:45:16.449Z,3032
2017-11-04T08:46:24.989Z,3052
2017-11-04T08:47:34.215Z,3060
2017-11-04T08:48:43.100Z,3064
2017-11-04T08:49:51.979Z,3068
2017-11-04T08:51:00.520Z,3076
2017-11-04T08:52:10.072Z,3120
2017-11-04T08:53:18.608Z,3144
2017-11-04T08:54:27.482Z,3104
2017-11-04T08:55:36.388Z,3012
2017-11-04T08:56:45.988Z,2976
2017-11-04T08:57:55.206Z,3060
2017-11-04T08:59:04.088Z,2704
2017-11-04T09:00:12.626Z,2868
2017-11-04T09:01:22.050Z,3088
2017-11-04T09:02:31.596Z,3140
2017-11-04T09:03:40.136Z,3156
2017-11-04T09:04:48.683Z,3184
2017-11-04T09:05:57.564Z,3188
2017-11-04T09:07:06.103Z,3212
2017-11-04T09:08:15.362Z,3216
2017-11-04T09:09:24.242Z,3224
2017-11-04T09:10:33.117Z,3224
2017-11-04T09:11:41.993Z,3232
2017-11-04T09:12:50.871Z,3268
2017-11-04T09:13:59.941Z,3276
2017-11-04T09:15:09.154Z,3284
2017-11-04T09:16:18.030Z,3316
2017-11-04T09:17:26.913Z,3340
2017-11-04T09:18:36.127Z,3364
2017-11-04T09:19:45.006Z,3404
2017-11-04T09:20:53.880Z,3460
2017-11-04T09:22:03.102Z,3468
2017-11-04T09:23:12.653Z,3516
2017-11-04T09:24:21.537Z,3588
2017-11-04T09:25:30.409Z,3660
2017-11-04T09:26:39.288Z,3708
2017-11-04T09:27:48.168Z,3776
2017-11-04T09:28:57.044Z,3856
2017-11-04T09:30:05.932Z,3920
2017-11-04T09:31:15.147Z,3900
2017-11-04T09:32:24.416Z,3840
2017-11-04T09:33:32.958Z,3784
2017-11-04T09:34:42.508Z,3808
2017-11-04T09:35:51.059Z,3896
2017-11-04T09:36:59.932Z,4020
2017-11-04T09:38:08.473Z,4260
2017-11-04T09:39:17.706Z,4224
2017-11-04T09:40:26.243Z,4140
2017-11-04T09:41:35.120Z,4104
2017-11-04T09:42:44.340Z,4040
2017-11-04T09:43:52.935Z,3960
2017-11-04T09:45:01.474Z,3872
2017-11-04T09:46:10.020Z,3840
2017-11-04T09:47:18.557Z,3804
2017-11-04T09:48:27.430Z,3788
2017-11-04T09:49:36.007Z,3768
2017-11-04T09:50:44.886Z,3788
2017-11-04T09:51:53.773Z,3812
2017-11-04T09:53:02.647Z,3624
2017-11-04T09:54:11.192Z,3980
2017-11-04T09:55:19.733Z,4416
2017-11-04T09:56:28.274Z,4436
2017-11-04T09:57:37.150Z,4244
2017-11-04T09:58:46.030Z,4076
2017-11-04T09:59:55.243Z,3952
2017-11-04T10:01:03.787Z,3516
2017-11-04T10:02:12.684Z,3516
2017-11-04T10:03:21.558Z,3256
2017-11-04T10:04:30.434Z,3252
2017-11-04T10:05:38.978Z,3172
2017-11-04T10:06:47.856Z,3028
2017-11-04T10:07:57.081Z,3104
2017-11-04T10:09:05.954Z,3332
2017-11-04T10:10:14.496Z,3548
2017-11-04T10:11:23.045Z,4728
2017-11-04T10:12:31.585Z,5216
2017-11-04T10:13:40.126Z,5324
2017-11-04T10:14:49.001Z,5060
2017-11-04T10:15:57.551Z,4752
2017-11-04T10:17:06.430Z,4572
2017-11-04T10:18:14.973Z,4428
2017-11-04T10:19:23.852Z,4132
2017-11-04T10:20:32.749Z,3928
2017-11-04T10:21:41.290Z,3764
2017-11-04T10:22:49.837Z,3676
2017-11-04T10:23:59.056Z,3588
2017-11-04T10:25:07.933Z,3528
2017-11-04T10:26:16.816Z,3432
2017-11-04T10:27:26.026Z,3392
2017-11-04T10:28:35.267Z,3384
2017-11-04T10:29:43.796Z,3364
2017-11-04T10:30:52.673Z,3360
2017-11-04T10:32:01.556Z,3340
2017-11-04T10:33:10.092Z,3328
2017-11-04T10:34:18.971Z,3324
2017-11-04T10:35:27.516Z,3340
2017-11-04T10:36:36.399Z,3344
2017-11-04T10:37:45.275Z,3340
2017-11-04T10:38:54.484Z,3344
2017-11-04T10:40:03.359Z,3340
2017-11-04T10:41:12.904Z,3364
2017-11-04T10:42:21.784Z,3344
2017-11-04T10:43:30.667Z,3344
2017-11-04T10:44:39.545Z,3336
2017-11-04T10:45:48.760Z,3336
2017-11-04T10:46:57.644Z,3324
2017-11-04T10:48:06.521Z,3304
2017-11-04T10:49:15.756Z,3300
2017-11-04T10:50:24.299Z,3300
2017-11-04T10:51:33.177Z,3312
2017-11-04T10:52:42.385Z,3312
2017-11-04T10:53:50.928Z,3292
2017-11-04T10:55:00.151Z,3284
2017-11-04T10:56:08.736Z,3288
2017-11-04T10:57:17.612Z,3292
2017-11-04T10:58:26.826Z,3312
2017-11-04T10:59:35.368Z,3328
2017-11-04T11:00:43.909Z,3324
2017-11-04T11:01:52.790Z,3336
2017-11-04T11:03:01.334Z,3360
2017-11-04T11:04:10.212Z,3368
2017-11-04T11:05:19.097Z,3368
2017-11-04T11:06:27.981Z,3368
2017-11-04T11:07:36.524Z,3400
2017-11-04T11:08:45.738Z,3424
2017-11-04T11:09:54.627Z,3452
2017-11-04T11:11:03.507Z,3468
2017-11-04T11:12:12.395Z,3460
2017-11-04T11:13:21.272Z,3428
2017-11-04T11:14:30.152Z,3408
2017-11-04T11:15:38.695Z,3380
2017-11-04T11:16:47.576Z,3344
2017-11-04T11:17:56.168Z,3324
2017-11-04T11:19:05.383Z,3320
2017-11-04T11:20:14.604Z,3316
2017-11-04T11:21:23.813Z,3316
2017-11-04T11:22:32.358Z,3320
2017-11-04T11:23:41.242Z,3320
2017-11-04T11:24:49.789Z,3324
2017-11-04T11:25:58.330Z,3340
2017-11-04T11:27:07.542Z,3340
2017-11-04T11:28:16.083Z,3360
2017-11-04T11:29:25.685Z,3356
2017-11-04T11:30:34.911Z,3360
2017-11-04T11:31:44.132Z,3368
2017-11-04T11:32:52.669Z,3360
2017-11-04T11:34:01.883Z,3356
2017-11-04T11:35:10.441Z,3340
2017-11-04T11:36:19.659Z,3316
2017-11-04T11:37:28.540Z,3296
2017-11-04T11:38:37.084Z,3288
2017-11-04T11:39:46.297Z,3296
2017-11-04T11:40:54.844Z,3292
2017-11-04T11:42:04.063Z,3280
2017-11-04T11:43:12.993Z,3300
2017-11-04T11:44:21.869Z,3320
2017-11-04T11:45:30.413Z,3380
2017-11-04T11:46:38.958Z,3464
2017-11-04T11:47:48.176Z,3520
2017-11-04T11:48:57.052Z,3504
2017-11-04T11:50:05.704Z,3588
2017-11-04T11:51:14.967Z,3636
2017-11-04T11:52:24.219Z,3684
2017-11-04T11:53:33.101Z,3816
2017-11-04T11:54:42.313Z,3844
2017-11-04T11:55:51.199Z,3616
2017-11-04T11:56:59.741Z,3524
2017-11-04T11:58:08.283Z,3404
2017-11-04T11:59:16.827Z,3136
2017-11-04T12:00:25.704Z,3388
2017-11-04T12:01:34.586Z,3552
2017-11-04T12:02:43.132Z,3428
2017-11-04T12:03:53.085Z,3356
2017-11-04T12:05:02.645Z,3400
2017-11-04T12:06:11.830Z,3572
2017-11-04T12:07:21.194Z,3636
2017-11-04T12:08:30.179Z,3656
2017-11-04T12:09:39.701Z,3684
2017-11-04T12:10:50.176Z,3480
2017-11-04T12:11:59.265Z,3460
2017-11-04T12:13:08.655Z,3520
2017-11-04T12:14:17.281Z,3552
2017-11-04T12:15:26.162Z,3424
2017-11-04T12:16:34.708Z,3496
2017-11-04T12:17:44.280Z,3612
2017-11-04T12:18:53.555Z,3744
2017-11-04T12:20:02.772Z,3904
2017-11-04T12:21:11.650Z,4056
2017-11-04T12:22:20.211Z,4096
2017-11-04T12:23:29.092Z,4060
2017-11-04T12:24:37.970Z,4012
2017-11-04T12:25:46.513Z,3988
2017-11-04T12:26:55.057Z,3932
2017-11-04T12:28:03.946Z,3932
2017-11-04T12:29:12.489Z,3880
2017-11-04T12:30:21.035Z,3808
2017-11-04T12:31:29.912Z,3776
2017-11-04T12:32:38.459Z,3712
2017-11-04T12:33:47.350Z,3644
2017-11-04T12:34:56.582Z,3504
2017-11-04T12:36:05.463Z,3364
2017-11-04T12:37:14.005Z,3252
2017-11-04T12:38:23.221Z,3132
2017-11-04T12:39:31.762Z,3048
2017-11-04T12:40:40.304Z,3008
2017-11-04T12:41:49.531Z,2976
2017-11-04T12:42:58.741Z,2944
2017-11-04T12:44:07.621Z,2948
2017-11-04T12:45:16.502Z,2936
2017-11-04T12:46:25.724Z,2924
2017-11-04T12:47:34.606Z,2904
2017-11-04T12:48:44.157Z,2900
2017-11-04T12:49:52.700Z,2896
2017-11-04T12:51:01.915Z,2904
2017-11-04T12:52:11.134Z,2896
2017-11-04T12:53:20.360Z,2872
2017-11-04T12:54:29.578Z,2864
2017-11-04T12:55:38.124Z,2864
2017-11-04T12:56:47.003Z,2844
2017-11-04T12:57:56.219Z,2832
2017-11-04T12:59:05.095Z,2816
2017-11-04T13:00:14.033Z,2828
2017-11-04T13:01:22.576Z,2816
2017-11-04T13:02:31.457Z,2816
2017-11-04T13:03:41.016Z,2796
2017-11-04T13:04:49.561Z,2796
2017-11-04T13:05:58.104Z,2800
2017-11-04T13:07:06.989Z,2792
2017-11-04T13:08:15.592Z,2792
2017-11-04T13:09:24.845Z,2800
2017-11-04T13:10:33.755Z,2804
2017-11-04T13:11:42.358Z,2808
2017-11-04T13:12:51.279Z,2808
2017-11-04T13:14:00.167Z,2796
2017-11-04T13:15:08.780Z,2776
2017-11-04T13:16:17.324Z,2776
2017-11-04T13:17:25.867Z,2780
2017-11-04T13:18:34.410Z,2788
2017-11-04T13:19:43.631Z,2804
2017-11-04T13:20:52.505Z,2788
2017-11-04T13:22:01.048Z,2796
2017-11-04T13:23:09.931Z,2760
2017-11-04T13:24:18.811Z,2692
2017-11-04T13:25:27.691Z,2660
2017-11-04T13:26:36.234Z,2668
2017-11-04T13:27:44.785Z,2616
2017-11-04T13:28:53.655Z,2512
2017-11-04T13:30:02.533Z,2320
2017-11-04T13:31:11.410Z,2100
2017-11-04T13:32:20.624Z,2036
2017-11-04T13:33:29.844Z,2204
2017-11-04T13:34:38.390Z,2140
2017-11-04T13:35:47.267Z,2044
2017-11-04T13:36:56.493Z,2040
2017-11-04T13:38:05.036Z,2116
2017-11-04T13:39:13.577Z,2328
2017-11-04T13:40:22.455Z,2424
2017-11-04T13:41:31.334Z,2612
2017-11-04T13:42:40.217Z,2816
2017-11-04T13:43:49.106Z,3092
2017-11-04T13:44:57.990Z,3536
2017-11-04T13:46:06.879Z,4144
2017-11-04T13:47:16.099Z,4664
2017-11-04T13:48:24.649Z,4796
2017-11-04T13:49:33.523Z,4624
2017-11-04T13:50:43.105Z,4576
2017-11-04T13:51:52.369Z,4624
2017-11-04T13:53:01.248Z,4892
2017-11-04T13:54:09.788Z,4652
2017-11-04T13:55:18.665Z,4548
2017-11-04T13:56:27.205Z,4568
2017-11-04T13:57:35.751Z,4744
2017-11-04T13:58:44.293Z,4944
2017-11-04T13:59:52.840Z,4888
2017-11-04T14:01:02.465Z,4528
2017-11-04T14:02:11.018Z,4332
2017-11-04T14:03:19.614Z,4264
2017-11-04T14:04:28.154Z,4280
2017-11-04T14:05:37.041Z,4208
2017-11-04T14:06:45.923Z,4140
2017-11-04T14:07:55.143Z,4160
2017-11-04T14:09:03.701Z,4144
2017-11-04T14:10:13.598Z,4084
2017-11-04T14:11:23.267Z,4100
2017-11-04T14:12:32.515Z,4216
2017-11-04T14:13:41.088Z,4412
2017-11-04T14:14:50.312Z,3908
2017-11-04T14:15:58.888Z,3580
2017-11-04T14:17:07.918Z,3144
2017-11-04T14:18:16.925Z,2904
2017-11-04T14:19:57.679Z,2936
2017-11-04T14:21:06.639Z,2848
2017-11-04T14:22:15.987Z,2652
2017-11-04T14:23:25.263Z,2604
2017-11-04T14:24:34.188Z,2624
2017-11-04T14:25:43.383Z,2364
2017-11-04T14:26:51.931Z,2040
2017-11-04T14:28:00.476Z,1624
2017-11-04T14:29:09.376Z,1184
2017-11-04T14:30:18.269Z,1080
2017-11-04T14:31:27.486Z,848
2017-11-04T14:32:36.032Z,728
2017-11-04T14:33:44.575Z,664
2017-11-04T14:34:53.124Z,756
2017-11-04T14:36:01.669Z,656
2017-11-04T14:37:10.553Z,696
2017-11-04T14:38:19.107Z,508
2017-11-04T14:39:27.652Z,368
2017-11-04T14:40:36.198Z,324
2017-11-04T14:41:44.745Z,300
2017-11-04T14:42:53.289Z,272
2017-11-04T14:44:02.170Z,276
2017-11-04T14:45:11.048Z,284
2017-11-04T14:46:20.270Z,284
2017-11-04T14:47:28.810Z,272
2017-11-04T14:48:38.032Z,268
2017-11-04T14:49:46.915Z,272
2017-11-04T14:50:55.460Z,292
2017-11-04T14:52:04.009Z,296
2017-11-04T14:53:12.558Z,300
2017-11-04T14:54:21.778Z,308
2017-11-04T14:55:30.999Z,312
2017-11-04T14:56:40.232Z,312
2017-11-04T14:57:49.447Z,284
2017-11-04T14:58:58.329Z,336
2017-11-04T15:00:07.208Z,376
2017-11-04T15:01:15.750Z,360
2017-11-04T15:02:24.291Z,420
2017-11-04T15:03:32.834Z,404
2017-11-04T15:04:41.708Z,404
2017-11-04T15:05:50.626Z,384
2017-11-04T15:06:59.542Z,352
2017-11-04T15:08:09.095Z,288
2017-11-04T15:09:17.982Z,280
2017-11-04T15:10:26.524Z,292
2017-11-04T15:11:35.402Z,260
2017-11-04T15:12:44.618Z,212
2017-11-04T15:13:53.841Z,180
2017-11-04T15:15:02.723Z,168
2017-11-04T15:16:11.947Z,188
2017-11-04T15:17:20.492Z,164
2017-11-04T15:18:29.370Z,180
2017-11-04T15:19:37.915Z,180
2017-11-04T15:20:47.129Z,188
2017-11-04T15:21:56.393Z,180
2017-11-04T15:23:04.936Z,200
2017-11-04T15:24:14.177Z,180
2017-11-04T15:25:23.389Z,140
2017-11-04T15:26:32.268Z,160
2017-11-04T15:27:41.150Z,192
2017-11-04T15:28:49.694Z,216
2017-11-04T15:29:58.241Z,216
2017-11-04T15:31:06.784Z,196
2017-11-04T15:32:15.662Z,212
2017-11-04T15:33:24.557Z,204
2017-11-04T15:34:33.774Z,184
2017-11-04T15:35:42.652Z,152
2017-11-04T15:36:51.245Z,144
2017-11-04T15:37:59.839Z,144
2017-11-04T15:39:08.381Z,128
2017-11-04T15:40:16.924Z,124
2017-11-04T15:41:25.467Z,136
2017-11-04T15:42:34.351Z,136
2017-11-04T15:43:43.244Z,132
2017-11-04T15:44:51.787Z,124
2017-11-04T15:46:00.722Z,120
2017-11-04T15:47:09.937Z,112
2017-11-04T15:48:18.819Z,84
2017-11-04T15:49:27.747Z,68
2017-11-04T15:50:37.006Z,68
2017-11-04T15:51:45.581Z,60
2017-11-04T15:52:54.521Z,56
2017-11-04T15:54:03.414Z,56
2017-11-04T15:55:11.954Z,44
2017-11-04T15:56:20.847Z,44
2017-11-04T15:57:29.730Z,36
2017-11-04T15:58:38.285Z,36
2017-11-04T15:59:46.845Z,28
2017-11-04T16:00:56.150Z,28